sensor_id;sensor_type;location;lat;lon;timestamp;pressure;altitude;pressure_sealevel;temperature;humidity
29315;BME280;16320;53.954;9.506;2022-09-01T00:01:55;102370.72;;;13.14;100.00
29315;BME280;16320;53.954;9.506;2022-09-01T00:05:00;102360.22;;;13.13;100.00
29315;BME280;16320;53.954;9.506;2022-09-01T00:08:05;102352.41;;;13.10;100.00
29315;BME280;16320;53.954;9.506;2022-09-01T00:11:09;102369.25;;;13.06;100.00
29315;BME280;16320;53.954;9.506;2022-09-01T00:14:14;102363.28;;;13.00;100.00
29315;BME280;16320;53.954;9.506;2022-09-01T00:17:34;102360.75;;;12.97;100.00
29315;BME280;16320;53.954;9.506;2022-09-01T00:20:39;102358.38;;;12.90;100.00
29315;BME280;16320;53.954;9.506;2022-09-01T00:23:43;102355.78;;;12.88;100.00
29315;BME280;16320;53.954;9.506;2022-09-01T00:26:49;102356.72;;;12.87;100.00
29315;BME280;16320;53.954;9.506;2022-09-01T00:29:54;102359.69;;;12.78;100.00
29315;BME280;16320;53.954;9.506;2022-09-01T00:32:58;102350.16;;;12.74;100.00
29315;BME280;16320;53.954;9.506;2022-09-01T00:36:04;102352.03;;;12.70;100.00
29315;BME280;16320;53.954;9.506;2022-09-01T00:39:09;102364.09;;;12.77;100.00
29315;BME280;16320;53.954;9.506;2022-09-01T00:42:13;102372.81;;;12.79;100.00
29315;BME280;16320;53.954;9.506;2022-09-01T00:45:18;102363.34;;;12.74;100.00
29315;BME280;16320;53.954;9.506;2022-09-01T00:48:26;102362.84;;;12.62;100.00
29315;BME280;16320;53.954;9.506;2022-09-01T00:51:33;102366.59;;;12.55;100.00
29315;BME280;16320;53.954;9.506;2022-09-01T00:54:45;102360.53;;;12.53;100.00
29315;BME280;16320;53.954;9.506;2022-09-01T00:57:50;102357.88;;;12.53;100.00
29315;BME280;16320;53.954;9.506;2022-09-01T01:00:55;102344.91;;;12.47;100.00
29315;BME280;16320;53.954;9.506;2022-09-01T01:04:00;102352.13;;;12.42;100.00
29315;BME280;16320;53.954;9.506;2022-09-01T01:07:06;102352.91;;;12.44;100.00
29315;BME280;16320;53.954;9.506;2022-09-01T01:10:15;102348.44;;;12.46;100.00
29315;BME280;16320;53.954;9.506;2022-09-01T01:13:20;102342.41;;;12.42;100.00
29315;BME280;16320;53.954;9.506;2022-09-01T01:16:27;102347.91;;;12.36;100.00
29315;BME280;16320;53.954;9.506;2022-09-01T01:19:47;102345.44;;;12.32;100.00
29315;BME280;16320;53.954;9.506;2022-09-01T01:26:40;102350.59;;;12.35;100.00
29315;BME280;16320;53.954;9.506;2022-09-01T01:29:45;102347.97;;;12.35;100.00
29315;BME280;16320;53.954;9.506;2022-09-01T01:32:50;102354.00;;;12.38;100.00
29315;BME280;16320;53.954;9.506;2022-09-01T01:35:56;102345.44;;;12.32;100.00
29315;BME280;16320;53.954;9.506;2022-09-01T01:42:12;102349.25;;;12.21;100.00
29315;BME280;16320;53.954;9.506;2022-09-01T01:45:21;102345.72;;;12.22;100.00
29315;BME280;16320;53.954;9.506;2022-09-01T01:48:26;102353.63;;;12.22;100.00
29315;BME280;16320;53.954;9.506;2022-09-01T01:51:31;102361.44;;;12.25;100.00
29315;BME280;16320;53.954;9.506;2022-09-01T01:54:36;102357.13;;;12.23;100.00
29315;BME280;16320;53.954;9.506;2022-09-01T01:57:41;102355.47;;;12.20;100.00
29315;BME280;16320;53.954;9.506;2022-09-01T02:00:53;102356.47;;;12.16;100.00
29315;BME280;16320;53.954;9.506;2022-09-01T02:03:59;102353.88;;;12.15;100.00
29315;BME280;16320;53.954;9.506;2022-09-01T02:07:07;102354.84;;;12.12;100.00
29315;BME280;16320;53.954;9.506;2022-09-01T02:10:13;102353.03;;;12.14;100.00
29315;BME280;16320;53.954;9.506;2022-09-01T02:13:21;102358.38;;;12.11;100.00
29315;BME280;16320;53.954;9.506;2022-09-01T02:16:31;102345.22;;;12.11;100.00
29315;BME280;16320;53.954;9.506;2022-09-01T02:19:35;102349.81;;;12.04;100.00
29315;BME280;16320;53.954;9.506;2022-09-01T02:22:45;102348.22;;;11.99;100.00
29315;BME280;16320;53.954;9.506;2022-09-01T02:25:54;102343.94;;;11.96;100.00
29315;BME280;16320;53.954;9.506;2022-09-01T02:29:22;102352.84;;;11.92;100.00
29315;BME280;16320;53.954;9.506;2022-09-01T02:32:29;102342.31;;;11.90;100.00
29315;BME280;16320;53.954;9.506;2022-09-01T02:35:37;102344.03;;;11.93;100.00
29315;BME280;16320;53.954;9.506;2022-09-01T02:38:43;102341.34;;;11.95;100.00
29315;BME280;16320;53.954;9.506;2022-09-01T02:41:56;102340.50;;;11.94;100.00
29315;BME280;16320;53.954;9.506;2022-09-01T02:45:02;102349.31;;;11.93;100.00
29315;BME280;16320;53.954;9.506;2022-09-01T02:48:07;102342.31;;;11.90;100.00
29315;BME280;16320;53.954;9.506;2022-09-01T02:51:18;102336.25;;;11.88;100.00
29315;BME280;16320;53.954;9.506;2022-09-01T02:54:24;102341.50;;;11.88;100.00
29315;BME280;16320;53.954;9.506;2022-09-01T02:57:30;102329.38;;;11.84;100.00
29315;BME280;16320;53.954;9.506;2022-09-01T03:00:39;102333.75;;;11.84;100.00
29315;BME280;16320;53.954;9.506;2022-09-01T03:03:44;102334.69;;;11.83;100.00
29315;BME280;16320;53.954;9.506;2022-09-01T03:06:48;102324.19;;;11.81;100.00
29315;BME280;16320;53.954;9.506;2022-09-01T03:09:57;102324.38;;;11.75;100.00
29315;BME280;16320;53.954;9.506;2022-09-01T03:13:09;102325.38;;;11.71;100.00
29315;BME280;16320;53.954;9.506;2022-09-01T03:16:14;102319.47;;;11.63;100.00
29315;BME280;16320;53.954;9.506;2022-09-01T03:19:19;102316.13;;;11.58;100.00
29315;BME280;16320;53.954;9.506;2022-09-01T03:22:24;102319.69;;;11.55;100.00
29315;BME280;16320;53.954;9.506;2022-09-01T03:25:28;102330.97;;;11.60;100.00
29315;BME280;16320;53.954;9.506;2022-09-01T03:28:33;102334.56;;;11.58;100.00
29315;BME280;16320;53.954;9.506;2022-09-01T03:31:37;102330.97;;;11.60;100.00
29315;BME280;16320;53.954;9.506;2022-09-01T03:34:42;102331.75;;;11.64;100.00
29315;BME280;16320;53.954;9.506;2022-09-01T03:37:47;102323.81;;;11.65;100.00
29315;BME280;16320;53.954;9.506;2022-09-01T03:40:55;102328.19;;;11.65;100.00
29315;BME280;16320;53.954;9.506;2022-09-01T03:44:02;102330.81;;;11.65;100.00
29315;BME280;16320;53.954;9.506;2022-09-01T03:47:06;102328.09;;;11.68;100.00
29315;BME280;16320;53.954;9.506;2022-09-01T03:50:17;102324.69;;;11.64;100.00
29315;BME280;16320;53.954;9.506;2022-09-01T03:53:24;102323.22;;;11.56;100.00
29315;BME280;16320;53.954;9.506;2022-09-01T03:56:30;102320.91;;;11.45;100.00
29315;BME280;16320;53.954;9.506;2022-09-01T03:59:36;102315.13;;;11.32;100.00
29315;BME280;16320;53.954;9.506;2022-09-01T04:02:51;102313.69;;;11.22;100.00
29315;BME280;16320;53.954;9.506;2022-09-01T04:06:01;102323.53;;;11.15;100.00
29315;BME280;16320;53.954;9.506;2022-09-01T04:09:05;102325.38;;;11.11;100.00
29315;BME280;16320;53.954;9.506;2022-09-01T04:12:10;102320.22;;;11.08;100.00
29315;BME280;16320;53.954;9.506;2022-09-01T04:15:17;102333.44;;;11.05;100.00
29315;BME280;16320;53.954;9.506;2022-09-01T04:18:23;102341.25;;;11.08;100.00
29315;BME280;16320;53.954;9.506;2022-09-01T04:21:27;102342.16;;;11.07;100.00
29315;BME280;16320;53.954;9.506;2022-09-01T04:24:33;102340.31;;;11.09;100.00
29315;BME280;16320;53.954;9.506;2022-09-01T04:27:38;102341.16;;;11.11;100.00
29315;BME280;16320;53.954;9.506;2022-09-01T04:30:44;102338.59;;;11.10;100.00
29315;BME280;16320;53.954;9.506;2022-09-01T04:33:56;102340.28;;;11.11;100.00
29315;BME280;16320;53.954;9.506;2022-09-01T04:37:07;102342.84;;;11.14;100.00
29315;BME280;16320;53.954;9.506;2022-09-01T04:40:12;102340.19;;;11.14;100.00
29315;BME280;16320;53.954;9.506;2022-09-01T04:43:18;102344.50;;;11.18;100.00
29315;BME280;16320;53.954;9.506;2022-09-01T04:46:25;102343.66;;;11.16;100.00
29315;BME280;16320;53.954;9.506;2022-09-01T04:49:34;102346.44;;;11.11;100.00
29315;BME280;16320;53.954;9.506;2022-09-01T04:52:41;102342.06;;;11.10;100.00
29315;BME280;16320;53.954;9.506;2022-09-01T04:55:47;102340.31;;;11.09;100.00
29315;BME280;16320;53.954;9.506;2022-09-01T04:58:53;102336.97;;;11.04;100.00
29315;BME280;16320;53.954;9.506;2022-09-01T05:01:59;102344.13;;;10.99;100.00
29315;BME280;16320;53.954;9.506;2022-09-01T05:05:04;102338.09;;;10.95;100.00
29315;BME280;16320;53.954;9.506;2022-09-01T05:08:20;102332.91;;;10.92;100.00
29315;BME280;16320;53.954;9.506;2022-09-01T05:11:27;102340.13;;;10.86;100.00
29315;BME280;16320;53.954;9.506;2022-09-01T05:14:32;102344.53;;;10.84;100.00
29315;BME280;16320;53.954;9.506;2022-09-01T05:17:37;102340.97;;;10.86;100.00
29315;BME280;16320;53.954;9.506;2022-09-01T05:20:42;102354.84;;;10.91;100.00
29315;BME280;16320;53.954;9.506;2022-09-01T05:23:47;102355.63;;;10.95;100.00
29315;BME280;16320;53.954;9.506;2022-09-01T05:26:53;102363.25;;;11.04;100.00
29315;BME280;16320;53.954;9.506;2022-09-01T05:29:58;102364.91;;;11.08;100.00
29315;BME280;16320;53.954;9.506;2022-09-01T05:33:04;102364.06;;;11.06;100.00
29315;BME280;16320;53.954;9.506;2022-09-01T05:36:17;102366.81;;;11.03;100.00
29315;BME280;16320;53.954;9.506;2022-09-01T05:39:24;102365.00;;;11.05;100.00
29315;BME280;16320;53.954;9.506;2022-09-01T05:42:28;102364.06;;;11.06;100.00
29315;BME280;16320;53.954;9.506;2022-09-01T05:45:35;102368.28;;;11.13;100.00
29315;BME280;16320;53.954;9.506;2022-09-01T05:49:00;102370.81;;;11.16;100.00
29315;BME280;16320;53.954;9.506;2022-09-01T05:52:05;102367.22;;;11.19;100.00
29315;BME280;16320;53.954;9.506;2022-09-01T05:55:13;102375.94;;;11.23;100.00
29315;BME280;16320;53.954;9.506;2022-09-01T05:58:19;102381.88;;;11.29;100.00
29315;BME280;16320;53.954;9.506;2022-09-01T06:01:27;102382.56;;;11.36;100.00
29315;BME280;16320;53.954;9.506;2022-09-01T06:04:36;102389.31;;;11.45;100.00
29315;BME280;16320;53.954;9.506;2022-09-01T06:07:43;102383.88;;;11.51;100.00
29315;BME280;16320;53.954;9.506;2022-09-01T06:10:48;102386.38;;;11.56;100.00
29315;BME280;16320;53.954;9.506;2022-09-01T06:13:53;102380.94;;;11.62;100.00
29315;BME280;16320;53.954;9.506;2022-09-01T06:16:59;102396.53;;;11.68;100.00
29315;BME280;16320;53.954;9.506;2022-09-01T06:20:04;102396.34;;;11.74;100.00
29315;BME280;16320;53.954;9.506;2022-09-01T06:23:16;102399.63;;;11.82;100.00
29315;BME280;16320;53.954;9.506;2022-09-01T06:26:28;102404.69;;;11.88;100.00
29315;BME280;16320;53.954;9.506;2022-09-01T06:29:33;102419.44;;;11.96;100.00
29315;BME280;16320;53.954;9.506;2022-09-01T06:32:37;102413.13;;;12.01;100.00
29315;BME280;16320;53.954;9.506;2022-09-01T06:35:44;102417.22;;;12.10;100.00
29315;BME280;16320;53.954;9.506;2022-09-01T06:38:52;102425.72;;;12.20;100.00
29315;BME280;16320;53.954;9.506;2022-09-01T06:41:57;102431.47;;;12.33;100.00
29315;BME280;16320;53.954;9.506;2022-09-01T06:45:10;102436.25;;;12.48;100.00
29315;BME280;16320;53.954;9.506;2022-09-01T06:48:15;102441.09;;;12.60;100.00
29315;BME280;16320;53.954;9.506;2022-09-01T06:51:21;102442.41;;;12.75;100.00
29315;BME280;16320;53.954;9.506;2022-09-01T06:54:27;102439.44;;;12.85;100.00
29315;BME280;16320;53.954;9.506;2022-09-01T06:57:40;102447.00;;;12.95;100.00
29315;BME280;16320;53.954;9.506;2022-09-01T07:01:09;102451.81;;;13.08;100.00
29315;BME280;16320;53.954;9.506;2022-09-01T07:04:19;102450.59;;;13.18;100.00
29315;BME280;16320;53.954;9.506;2022-09-01T07:07:28;102455.63;;;13.26;100.00
29315;BME280;16320;53.954;9.506;2022-09-01T07:10:56;102454.34;;;13.38;100.00
29315;BME280;16320;53.954;9.506;2022-09-01T07:14:22;102452.97;;;13.51;100.00
29315;BME280;16320;53.954;9.506;2022-09-01T07:17:26;102449.78;;;13.66;100.00
29315;BME280;16320;53.954;9.506;2022-09-01T07:20:33;102448.50;;;13.77;100.00
29315;BME280;16320;53.954;9.506;2022-09-01T07:24:01;102448.03;;;13.89;100.00
29315;BME280;16320;53.954;9.506;2022-09-01T07:27:14;102442.56;;;13.94;100.00
29315;BME280;16320;53.954;9.506;2022-09-01T07:30:22;102445.66;;;14.05;100.00
29315;BME280;16320;53.954;9.506;2022-09-01T07:33:28;102444.34;;;14.17;100.00
29315;BME280;16320;53.954;9.506;2022-09-01T07:36:54;102440.06;;;14.36;100.00
29315;BME280;16320;53.954;9.506;2022-09-01T07:40:20;102441.81;;;14.58;100.00
29315;BME280;16320;53.954;9.506;2022-09-01T07:43:46;102430.53;;;14.75;100.00
29315;BME280;16320;53.954;9.506;2022-09-01T07:46:52;102414.28;;;14.84;100.00
29315;BME280;16320;53.954;9.506;2022-09-01T07:50:17;102414.75;;;14.94;100.00
29315;BME280;16320;53.954;9.506;2022-09-01T07:53:42;102409.78;;;15.07;100.00
29315;BME280;16320;53.954;9.506;2022-09-01T07:56:48;102385.50;;;15.17;100.00
29315;BME280;16320;53.954;9.506;2022-09-01T07:59:53;102370.66;;;15.34;100.00
29315;BME280;16320;53.954;9.506;2022-09-01T08:02:59;102359.25;;;15.51;100.00
29315;BME280;16320;53.954;9.506;2022-09-01T08:06:11;102347.09;;;15.66;100.00
29315;BME280;16320;53.954;9.506;2022-09-01T08:09:15;102340.34;;;15.79;100.00
29315;BME280;16320;53.954;9.506;2022-09-01T08:12:40;102345.47;;;15.82;100.00
29315;BME280;16320;53.954;9.506;2022-09-01T08:15:45;102330.91;;;15.91;100.00
29315;BME280;16320;53.954;9.506;2022-09-01T08:19:09;102328.69;;;16.01;100.00
29315;BME280;16320;53.954;9.506;2022-09-01T08:22:19;102324.78;;;16.08;100.00
29315;BME280;16320;53.954;9.506;2022-09-01T08:25:27;102329.34;;;16.23;100.00
29315;BME280;16320;53.954;9.506;2022-09-01T08:28:31;102327.47;;;16.43;100.00
29315;BME280;16320;53.954;9.506;2022-09-01T08:31:36;102324.50;;;16.49;100.00
29315;BME280;16320;53.954;9.506;2022-09-01T08:34:41;102319.66;;;16.57;100.00
29315;BME280;16320;53.954;9.506;2022-09-01T08:37:46;102319.41;;;16.62;100.00
29315;BME280;16320;53.954;9.506;2022-09-01T08:40:55;102306.19;;;16.78;100.00
29315;BME280;16320;53.954;9.506;2022-09-01T08:48:06;102300.72;;;16.98;100.00
29315;BME280;16320;53.954;9.506;2022-09-01T08:51:48;102295.69;;;17.10;100.00
29315;BME280;16320;53.954;9.506;2022-09-01T08:58:11;102313.94;;;17.16;100.00
29315;BME280;16320;53.954;9.506;2022-09-01T09:01:30;102310.84;;;17.24;100.00
29315;BME280;16320;53.954;9.506;2022-09-01T09:12:34;102294.78;;;17.59;100.00
29315;BME280;16320;53.954;9.506;2022-09-01T09:16:01;102288.06;;;17.67;100.00
29315;BME280;16320;53.954;9.506;2022-09-01T09:19:31;102276.16;;;17.74;100.00
29315;BME280;16320;53.954;9.506;2022-09-01T09:22:38;102272.28;;;17.80;100.00
29315;BME280;16320;53.954;9.506;2022-09-01T09:25:44;102288.44;;;17.61;100.00
29315;BME280;16320;53.954;9.506;2022-09-01T09:28:49;102288.16;;;17.66;100.00
29315;BME280;16320;53.954;9.506;2022-09-01T09:32:05;102294.53;;;17.63;100.00
29315;BME280;16320;53.954;9.506;2022-09-01T09:35:45;102299.75;;;17.65;100.00
29315;BME280;16320;53.954;9.506;2022-09-01T09:39:13;102276.94;;;17.61;100.00
29315;BME280;16320;53.954;9.506;2022-09-01T09:42:22;102250.34;;;17.77;100.00
29315;BME280;16320;53.954;9.506;2022-09-01T09:45:35;102242.03;;;17.83;100.00
29315;BME280;16320;53.954;9.506;2022-09-01T09:48:42;102211.91;;;17.82;100.00
29315;BME280;16320;53.954;9.506;2022-09-01T09:51:51;102211.06;;;17.82;100.00
29315;BME280;16320;53.954;9.506;2022-09-01T09:55:20;102241.44;;;17.78;100.00
29315;BME280;16320;53.954;9.506;2022-09-01T09:58:39;102207.47;;;17.83;100.00
29315;BME280;16320;53.954;9.506;2022-09-01T10:01:45;102207.28;;;17.86;100.00
29315;BME280;16320;53.954;9.506;2022-09-01T10:04:56;102232.31;;;17.82;100.00
29315;BME280;16320;53.954;9.506;2022-09-01T10:08:14;102233.41;;;17.63;100.00
29315;BME280;16320;53.954;9.506;2022-09-01T10:11:39;102233.75;;;17.57;100.00
29315;BME280;16320;53.954;9.506;2022-09-01T10:14:52;102241.31;;;17.49;100.00
29315;BME280;16320;53.954;9.506;2022-09-01T10:18:08;102244.56;;;17.54;100.00
29315;BME280;16320;53.954;9.506;2022-09-01T10:21:37;102272.03;;;17.53;100.00
29315;BME280;16320;53.954;9.506;2022-09-01T10:24:42;102280.34;;;17.63;100.00
29315;BME280;16320;53.954;9.506;2022-09-01T10:27:57;102259.81;;;17.66;100.00
29315;BME280;16320;53.954;9.506;2022-09-01T10:31:05;102234.47;;;17.91;100.00
29315;BME280;16320;53.954;9.506;2022-09-01T10:34:16;102253.53;;;18.14;100.00
29315;BME280;16320;53.954;9.506;2022-09-01T10:37:23;102196.66;;;18.30;100.00
29315;BME280;16320;53.954;9.506;2022-09-01T10:40:35;102180.13;;;18.69;100.00
29315;BME280;16320;53.954;9.506;2022-09-01T10:43:48;102170.50;;;19.09;100.00
29315;BME280;16320;53.954;9.506;2022-09-01T10:46:53;102176.38;;;19.54;100.00
29315;BME280;16320;53.954;9.506;2022-09-01T10:50:29;102171.25;;;19.91;100.00
29315;BME280;16320;53.954;9.506;2022-09-01T10:53:53;102126.03;;;20.28;100.00
29315;BME280;16320;53.954;9.506;2022-09-01T10:56:58;102113.38;;;20.56;100.00
29315;BME280;16320;53.954;9.506;2022-09-01T11:03:52;102116.03;;;19.93;100.00
29315;BME280;16320;53.954;9.506;2022-09-01T11:07:03;102097.25;;;19.82;100.00
29315;BME280;16320;53.954;9.506;2022-09-01T11:10:48;102102.34;;;19.85;100.00
29315;BME280;16320;53.954;9.506;2022-09-01T11:13:56;102085.31;;;20.01;100.00
29315;BME280;16320;53.954;9.506;2022-09-01T11:20:32;102087.03;;;20.02;100.00
29315;BME280;16320;53.954;9.506;2022-09-01T11:23:38;102083.06;;;20.07;100.00
29315;BME280;16320;53.954;9.506;2022-09-01T11:26:47;102098.00;;;20.10;100.00
29315;BME280;16320;53.954;9.506;2022-09-01T11:29:58;102090.75;;;19.86;100.00
29315;BME280;16320;53.954;9.506;2022-09-01T11:39:59;102087.81;;;19.64;100.00
29315;BME280;16320;53.954;9.506;2022-09-01T11:43:14;102092.91;;;19.54;100.00
29315;BME280;16320;53.954;9.506;2022-09-01T11:46:30;102095.91;;;19.49;100.00
29315;BME280;16320;53.954;9.506;2022-09-01T11:49:44;102085.44;;;19.46;100.00
29315;BME280;16320;53.954;9.506;2022-09-01T11:56:16;102096.28;;;19.17;100.00
29315;BME280;16320;53.954;9.506;2022-09-01T11:59:36;102098.97;;;19.03;100.00
29315;BME280;16320;53.954;9.506;2022-09-01T12:02:50;102099.19;;;19.00;100.00
29315;BME280;16320;53.954;9.506;2022-09-01T12:05:59;102096.91;;;18.94;100.00
29315;BME280;16320;53.954;9.506;2022-09-01T12:09:06;102090.44;;;18.98;100.00
29315;BME280;16320;53.954;9.506;2022-09-01T12:12:34;102102.53;;;18.89;100.00
29315;BME280;16320;53.954;9.506;2022-09-01T12:15:40;102100.84;;;18.88;100.00
29315;BME280;16320;53.954;9.506;2022-09-01T12:19:21;102086.34;;;19.19;100.00
29315;BME280;16320;53.954;9.506;2022-09-01T12:22:26;102066.69;;;19.48;100.00
29315;BME280;16320;53.954;9.506;2022-09-01T12:25:33;102059.94;;;19.82;100.00
29315;BME280;16320;53.954;9.506;2022-09-01T12:28:39;102059.06;;;19.94;100.00
29315;BME280;16320;53.954;9.506;2022-09-01T12:31:47;102058.44;;;19.91;100.00
29315;BME280;16320;53.954;9.506;2022-09-01T12:35:03;102053.09;;;20.04;100.00
29315;BME280;16320;53.954;9.506;2022-09-01T12:41:35;102043.41;;;20.40;100.00
29315;BME280;16320;53.954;9.506;2022-09-01T12:47:50;102044.13;;;20.79;100.00
29315;BME280;16320;53.954;9.506;2022-09-01T12:50:57;102042.25;;;20.92;100.00
29315;BME280;16320;53.954;9.506;2022-09-01T12:54:02;102027.25;;;21.02;100.00
29315;BME280;16320;53.954;9.506;2022-09-01T12:57:08;102025.81;;;21.10;100.00
29315;BME280;16320;53.954;9.506;2022-09-01T13:00:21;102012.44;;;21.10;100.00
29315;BME280;16320;53.954;9.506;2022-09-01T13:03:27;102024.25;;;21.18;100.00
29315;BME280;16320;53.954;9.506;2022-09-01T13:06:32;102026.31;;;21.15;100.00
29315;BME280;16320;53.954;9.506;2022-09-01T13:09:37;102018.25;;;21.03;100.00
29315;BME280;16320;53.954;9.506;2022-09-01T13:12:43;102020.69;;;21.07;100.00
29315;BME280;16320;53.954;9.506;2022-09-01T13:15:51;102022.13;;;20.99;100.00
29315;BME280;16320;53.954;9.506;2022-09-01T13:18:56;102021.38;;;20.97;100.00
29315;BME280;16320;53.954;9.506;2022-09-01T13:22:21;102021.09;;;20.89;100.00
29315;BME280;16320;53.954;9.506;2022-09-01T13:25:25;102030.06;;;20.77;100.00
29315;BME280;16320;53.954;9.506;2022-09-01T13:28:30;102029.31;;;20.75;100.00
29315;BME280;16320;53.954;9.506;2022-09-01T13:31:35;102021.75;;;20.69;100.00
29315;BME280;16320;53.954;9.506;2022-09-01T13:34:40;102019.38;;;20.77;100.00
29315;BME280;16320;53.954;9.506;2022-09-01T13:37:46;102007.91;;;20.63;100.00
29315;BME280;16320;53.954;9.506;2022-09-01T13:40:51;102009.38;;;20.55;100.00
29315;BME280;16320;53.954;9.506;2022-09-01T13:43:56;102015.34;;;20.58;100.00
29315;BME280;16320;53.954;9.506;2022-09-01T13:47:00;102001.88;;;20.60;100.00
29315;BME280;16320;53.954;9.506;2022-09-01T13:50:25;102003.94;;;20.56;100.00
29315;BME280;16320;53.954;9.506;2022-09-01T13:53:51;102001.66;;;20.63;100.00
29315;BME280;16320;53.954;9.506;2022-09-01T13:56:56;101991.44;;;20.57;100.00
29315;BME280;16320;53.954;9.506;2022-09-01T14:00:00;101989.97;;;20.65;100.00
29315;BME280;16320;53.954;9.506;2022-09-01T14:03:15;101986.94;;;20.70;100.00
29315;BME280;16320;53.954;9.506;2022-09-01T14:06:21;101991.41;;;20.70;100.00
29315;BME280;16320;53.954;9.506;2022-09-01T14:09:25;101989.50;;;20.72;100.00
29315;BME280;16320;53.954;9.506;2022-09-01T14:12:30;101998.72;;;20.55;100.00
29315;BME280;16320;53.954;9.506;2022-09-01T14:15:36;101986.63;;;20.38;100.00
29315;BME280;16320;53.954;9.506;2022-09-01T14:18:41;101998.19;;;20.25;100.00
29315;BME280;16320;53.954;9.506;2022-09-01T14:21:46;101997.16;;;20.15;100.00
29315;BME280;16320;53.954;9.506;2022-09-01T14:24:51;101996.09;;;20.05;100.00
29315;BME280;16320;53.954;9.506;2022-09-01T14:27:55;102000.59;;;19.91;100.00
29315;BME280;16320;53.954;9.506;2022-09-01T14:31:00;101997.00;;;19.92;100.00
29315;BME280;16320;53.954;9.506;2022-09-01T14:34:09;101989.63;;;19.96;100.00
29315;BME280;16320;53.954;9.506;2022-09-01T14:37:15;101983.66;;;19.92;100.00
29315;BME280;16320;53.954;9.506;2022-09-01T14:40:21;101979.84;;;19.84;100.00
29315;BME280;16320;53.954;9.506;2022-09-01T14:43:28;101988.06;;;19.81;100.00
29315;BME280;16320;53.954;9.506;2022-09-01T14:46:35;101988.78;;;19.70;100.00
29315;BME280;16320;53.954;9.506;2022-09-01T14:49:40;101978.22;;;19.68;100.00
29315;BME280;16320;53.954;9.506;2022-09-01T14:52:45;101975.97;;;19.75;100.00
29315;BME280;16320;53.954;9.506;2022-09-01T14:55:50;101963.06;;;19.69;100.00
29315;BME280;16320;53.954;9.506;2022-09-01T14:58:59;101963.06;;;19.69;100.00
29315;BME280;16320;53.954;9.506;2022-09-01T15:02:05;101959.56;;;19.68;100.00
29315;BME280;16320;53.954;9.506;2022-09-01T15:05:11;101949.97;;;19.66;100.00
29315;BME280;16320;53.954;9.506;2022-09-01T15:08:16;101944.09;;;19.61;100.00
29315;BME280;16320;53.954;9.506;2022-09-01T15:11:21;101946.56;;;19.64;100.00
29315;BME280;16320;53.954;9.506;2022-09-01T15:14:25;101941.97;;;19.66;100.00
29315;BME280;16320;53.954;9.506;2022-09-01T15:17:30;101950.72;;;19.68;100.00
29315;BME280;16320;53.954;9.506;2022-09-01T15:20:41;101935.91;;;19.77;100.00
29315;BME280;16320;53.954;9.506;2022-09-01T15:23:49;101941.66;;;19.83;100.00
29315;BME280;16320;53.954;9.506;2022-09-01T15:26:55;101941.13;;;19.78;100.00
29315;BME280;16320;53.954;9.506;2022-09-01T15:29:59;101927.47;;;19.70;100.00
29315;BME280;16320;53.954;9.506;2022-09-01T15:33:07;101931.31;;;19.66;100.00
29315;BME280;16320;53.954;9.506;2022-09-01T15:36:23;101934.22;;;19.50;100.00
29315;BME280;16320;53.954;9.506;2022-09-01T15:39:30;101925.81;;;19.43;100.00
29315;BME280;16320;53.954;9.506;2022-09-01T15:42:41;101931.78;;;19.34;100.00
29315;BME280;16320;53.954;9.506;2022-09-01T15:45:45;101937.72;;;19.25;100.00
29315;BME280;16320;53.954;9.506;2022-09-01T15:48:50;101954.78;;;19.09;100.00
29315;BME280;16320;53.954;9.506;2022-09-01T15:51:55;101941.16;;;19.01;100.00
29315;BME280;16320;53.954;9.506;2022-09-01T15:55:02;101933.56;;;18.95;100.00
29315;BME280;16320;53.954;9.506;2022-09-01T15:58:08;101931.84;;;18.94;100.00
29315;BME280;16320;53.954;9.506;2022-09-01T16:01:14;101923.75;;;18.95;100.00
29315;BME280;16320;53.954;9.506;2022-09-01T16:04:19;101931.84;;;18.94;100.00
29315;BME280;16320;53.954;9.506;2022-09-01T16:07:30;101927.72;;;18.90;100.00
29315;BME280;16320;53.954;9.506;2022-09-01T16:10:37;101930.69;;;18.85;100.00
29315;BME280;16320;53.954;9.506;2022-09-01T16:13:43;101935.63;;;18.77;100.00
29315;BME280;16320;53.954;9.506;2022-09-01T16:17:14;101929.88;;;18.70;100.00
29315;BME280;16320;53.954;9.506;2022-09-01T16:20:29;101942.75;;;18.76;100.00
29315;BME280;16320;53.954;9.506;2022-09-01T16:23:46;101928.69;;;18.74;100.00
29315;BME280;16320;53.954;9.506;2022-09-01T16:26:53;101925.09;;;18.75;100.00
29315;BME280;16320;53.954;9.506;2022-09-01T16:30:14;101927.22;;;18.70;100.00
29315;BME280;16320;53.954;9.506;2022-09-01T16:33:19;101921.00;;;18.70;100.00
29315;BME280;16320;53.954;9.506;2022-09-01T16:37:14;101917.63;;;18.67;100.00
29315;BME280;16320;53.954;9.506;2022-09-01T16:41:04;101923.13;;;18.64;100.00
29315;BME280;16320;53.954;9.506;2022-09-01T16:48:02;101920.13;;;18.56;100.00
29315;BME280;16320;53.954;9.506;2022-09-01T16:51:36;101925.75;;;18.52;100.00
29315;BME280;16320;53.954;9.506;2022-09-01T17:02:19;101924.97;;;18.37;100.00
29315;BME280;16320;53.954;9.506;2022-09-01T17:05:54;101926.25;;;18.31;100.00
29315;BME280;16320;53.954;9.506;2022-09-01T17:09:19;101930.22;;;18.24;100.00
29315;BME280;16320;53.954;9.506;2022-09-01T17:12:44;101943.38;;;18.13;100.00
29315;BME280;16320;53.954;9.506;2022-09-01T17:16:10;101941.69;;;18.11;100.00
29315;BME280;16320;53.954;9.506;2022-09-01T17:19:20;101950.25;;;18.02;100.00